Terminal Aerodrome Forecast
Issued by NWS

Home | Current Version | Previous Version | Text Only | Print | Product List | Glossary Off
Versions: 1 2 3 4 5 6 7 8 9 10 11 12 13 14 15 16 17 18 19 20 21 22 23 24

000
FTUS41 KCLE 212300
TAFFDY
TAF
KFDY 212338Z 2200/2224 19006KT P6SM SKC
     FM220800 19008KT P6SM BKN040 OVC080 WS020/24045KT
      TEMPO 2210/2214 6SM -FZRA OVC020
     FM221400 20012KT 5SM -RA BR BKN020 OVC050 WS020/24050KT
     FM221900 22014G24KT 5SM -RA BR OVC012=

USA.gov is the U.S. government's official web portal to all federal, state and local government web resources and services.